Weather at Flugplatz Biel-Kappelen

Public forecast

Using degrees Celsius for public forecast. Weather courtesy of forecast.io.

Closest aviation weather report (METAR) to Flugplatz Biel-Kappelen

Closest report is Grenchen Airport, 7.6 nm (14.1 km) NE. Retrieved 2020/12/01 22:20 UTC (23 minutes ago):

LSZG 012220Z AUTO 06007KT 0300 FG VV001 01/01 Q1016

Closest aviation forecast (TAF) to Flugplatz Biel-Kappelen

Closest forecast is Payerne Air Base, 21.3 nm (39.5 km) SW. Retrieved 2020/12/01 17:00 UTC (6 hours ago):

TAF LSMP 011625Z 0117/0223 VRB03KT 9999 FEW030 BKN050 BECMG 0202/0204 05010KT BKN012 BECMG 0214/0216 VRB03KT